In Rescue
 
Open Full Screen Window  High Contrast Mode
Wind Gusting 00 knots
03
November 19, 2019 1:45 PM EST
Weather Information
Wind Direction
  250 °
Wind Speed
  03 kt (3 mph)
Wind Gust
  00 kt (0 mph)
Altimeter
29.79 in
Visibility
7 SM
Temperature
05° C
41° F
Dewpoint
01° C
34° F
Humidity
76%
1hr Rain Fall
00.00 in.
24hr Rain Fall
00.00 in.
Sky Condition
Overcast @ 3,500 ft
Scattered @ 2,700 ft
Scattered @ 1,800 ft
VFR

METAR KFPK 191845Z AUTO 25003KT 7SM SCT018 SCT027 OVC035 05/01 A2979 RMK AO2 T00490010

FAA Disclaimer: The data displayed is for advisory purposes only and is not to be used for flight planning or operations.